Alameda, California
Current Conditions -  °F | °C
As of 4:28 AM on Monday 20 Oct 2014 (Local Time) from KOAK Reporting Station
Broken Clouds Broken Clouds  
Wind Chill: 63°   Ceiling: 2400
Heat Index: 63°   Visibility: 10mi
Dew Point: 55°   Wind: 6mph
Humidity: 77%   Direction: 180°S
Pressure: 29.91"   Gusts: NA
Location:  37.77°N, 122.24°W
Report Text: KOAK 201128Z 18005KT 10SM BKN024 17/13 A2991 RMK AO2
Loading
Personal Weather Stations






























Interactive Weather Map
Tropical Storm Tracking
New forecast layout! Learn more

10-Day Weather Forecast

Advertisements
Track Severe Weather on mobile